createdAt,value
2018-06-21T00:02:00.203Z,6.20
2018-06-21T00:03:00.241Z,8.10
2018-06-21T00:04:00.577Z,7.40
2018-06-21T00:05:01.422Z,8.40
2018-06-21T00:06:11.924Z,8.60
2018-06-21T00:07:02.538Z,7.30
2018-06-21T00:07:59.974Z,8.30
2018-06-21T00:09:00.329Z,7.90
2018-06-21T00:10:11.331Z,8.80
2018-06-21T00:10:59.934Z,8.50
2018-06-21T00:12:00.352Z,8.50
2018-06-21T00:13:36.259Z,8.50
2018-06-21T00:14:00.453Z,8.90
2018-06-21T00:20:28.435Z,7.20
2018-06-21T00:21:28.446Z,10.20
2018-06-21T00:22:28.208Z,10.70
2018-06-21T00:23:31.522Z,10.10
2018-06-21T00:24:28.748Z,10.10
2018-06-21T00:26:38.621Z,10.60
2018-06-21T00:27:38.469Z,10.60
2018-06-21T00:28:43.211Z,10.50
2018-06-21T00:29:38.698Z,11.00
2018-06-21T00:30:38.652Z,10.00
2018-06-21T00:32:48.724Z,9.80
2018-06-21T00:33:48.775Z,10.50
2018-06-21T00:34:48.661Z,11.80
2018-06-21T00:35:49.054Z,11.10
2018-06-21T00:36:49.603Z,11.60
2018-06-21T00:37:51.694Z,11.10
2018-06-21T00:38:48.496Z,10.50
2018-06-21T00:39:49.076Z,10.50
2018-06-21T00:41:46.439Z,10.70
2018-06-21T00:42:46.706Z,10.40
2018-06-21T00:45:05.598Z,10.70
2018-06-21T00:46:05.948Z,10.30
2018-06-21T00:47:12.585Z,11.20
2018-06-21T00:48:05.518Z,11.10
2018-06-21T00:49:05.323Z,11.10
2018-06-21T00:50:12.922Z,11.50
2018-06-21T00:57:01.782Z,10.70
2018-06-21T00:58:02.112Z,11.90
2018-06-21T00:59:36.597Z,11.90
2018-06-21T01:00:16.629Z,12.10
2018-06-21T01:03:37.089Z,13.30
2018-06-21T01:04:37.079Z,13.90
2018-06-21T01:05:37.013Z,14.10
2018-06-21T01:06:37.117Z,12.30
2018-06-21T01:07:36.903Z,13.40
2018-06-21T01:08:43.877Z,13.30
2018-06-21T01:09:39.171Z,12.80
2018-06-21T01:10:37.855Z,13.80
2018-06-21T01:12:55.605Z,13.40
2018-06-21T01:14:12.354Z,14.90
2018-06-21T01:14:55.949Z,15.00
2018-06-21T01:15:55.789Z,14.80
2018-06-21T01:16:57.202Z,15.10
2018-06-21T01:17:56.536Z,16.20
2018-06-21T01:18:56.304Z,12.90
2018-06-21T01:20:12.789Z,13.80
2018-06-21T01:22:12.335Z,12.30
2018-06-21T01:22:48.100Z,13.10
2018-06-21T01:23:48.707Z,14.20
2018-06-21T01:25:11.179Z,14.70
2018-06-21T01:26:12.261Z,14.50
2018-06-21T01:26:48.137Z,13.60
2018-06-21T01:32:07.895Z,12.30
2018-06-21T01:33:12.591Z,15.90
2018-06-21T01:34:08.076Z,14.10
2018-06-21T01:35:10.125Z,13.90
2018-06-21T01:36:08.034Z,15.90
2018-06-21T01:37:07.691Z,15.50
2018-06-21T01:38:07.818Z,15.40
2018-06-21T01:39:13.933Z,16.60
2018-06-21T01:40:11.528Z,16.00
2018-06-21T01:41:07.661Z,15.80
2018-06-21T01:42:08.070Z,15.10
2018-06-21T01:43:08.007Z,15.60
2018-06-21T01:44:08.364Z,15.70
2018-06-21T01:45:10.269Z,15.90
2018-06-21T01:46:08.627Z,14.90
2018-06-21T01:47:08.089Z,17.90
2018-06-21T01:48:07.549Z,16.70
2018-06-21T01:49:07.908Z,17.80
2018-06-21T01:50:09.050Z,16.50
2018-06-21T01:51:07.731Z,16.10
2018-06-21T01:52:07.523Z,16.70
2018-06-21T01:53:07.891Z,15.80
2018-06-21T01:54:07.809Z,15.70
2018-06-21T01:55:07.846Z,15.60
2018-06-21T01:56:09.573Z,15.30
2018-06-21T01:57:07.817Z,16.30
2018-06-21T01:58:08.381Z,15.50
2018-06-21T01:59:08.216Z,15.00
2018-06-21T02:00:07.435Z,15.60
2018-06-21T02:01:07.414Z,16.40
2018-06-21T02:02:12.126Z,15.70
2018-06-21T02:03:07.614Z,15.60
2018-06-21T02:04:07.828Z,16.60
2018-06-21T02:05:07.940Z,16.00
2018-06-21T02:06:09.032Z,17.10
2018-06-21T02:07:07.533Z,17.70
2018-06-21T02:08:07.734Z,15.80
2018-06-21T02:09:11.455Z,16.90
2018-06-21T02:10:07.759Z,16.10
2018-06-21T02:12:18.032Z,14.80
2018-06-21T02:13:18.333Z,15.70
2018-06-21T02:14:17.927Z,14.80
2018-06-21T02:15:18.433Z,14.50
2018-06-21T02:16:18.339Z,15.70
2018-06-21T02:17:18.246Z,15.70
2018-06-21T02:18:18.245Z,16.30
2018-06-21T02:19:18.052Z,16.40
2018-06-21T02:20:17.935Z,15.80
2018-06-21T02:21:17.810Z,15.60
2018-06-21T02:22:17.763Z,15.50
2018-06-21T02:23:18.159Z,16.40
2018-06-21T02:25:27.671Z,14.50
2018-06-21T02:26:30.175Z,16.00
2018-06-21T02:27:43.344Z,15.50
2018-06-21T02:28:27.952Z,15.90
2018-06-21T02:29:44.629Z,17.70
2018-06-21T02:30:27.448Z,16.20
2018-06-21T02:31:27.657Z,16.60
2018-06-21T02:32:27.623Z,17.20
2018-06-21T02:33:27.716Z,16.70
2018-06-21T02:34:27.622Z,16.40
2018-06-21T02:35:27.398Z,17.20
2018-06-21T02:36:27.561Z,16.80
2018-06-21T02:37:27.385Z,15.70
2018-06-21T02:38:27.528Z,15.70
2018-06-21T02:39:27.350Z,15.90
2018-06-21T02:40:27.529Z,15.80
2018-06-21T02:41:27.602Z,15.70
2018-06-21T02:42:27.692Z,15.90
2018-06-21T02:43:27.299Z,15.50
2018-06-21T02:44:27.287Z,16.00
2018-06-21T02:46:42.108Z,14.40
2018-06-21T02:47:40.045Z,15.60
2018-06-21T02:48:40.104Z,15.40
2018-06-21T02:49:39.917Z,15.00
2018-06-21T02:50:40.096Z,14.50
2018-06-21T02:51:40.155Z,14.70
2018-06-21T02:52:42.129Z,14.10
2018-06-21T02:53:40.344Z,13.70
2018-06-21T02:54:41.202Z,13.80
2018-06-21T02:55:39.835Z,13.60
2018-06-21T02:56:40.444Z,13.40
2018-06-21T02:57:40.174Z,13.70
2018-06-21T02:58:42.154Z,13.60
2018-06-21T02:59:40.151Z,13.20
2018-06-21T03:00:40.020Z,13.50
2018-06-21T03:01:40.154Z,13.60
2018-06-21T03:02:42.072Z,13.70
2018-06-21T03:03:41.282Z,14.00
2018-06-21T03:04:41.163Z,13.40
2018-06-21T03:05:39.966Z,13.70
2018-06-21T03:06:39.699Z,13.00
2018-06-21T03:07:39.893Z,13.90
2018-06-21T03:08:39.716Z,13.40
2018-06-21T03:09:39.665Z,13.50
2018-06-21T03:10:39.987Z,13.20
2018-06-21T03:13:51.196Z,11.20
2018-06-21T03:14:50.419Z,12.30
2018-06-21T03:15:50.925Z,13.20
2018-06-21T03:16:50.639Z,12.20
2018-06-21T03:17:50.685Z,13.30
2018-06-21T03:18:50.729Z,12.10
2018-06-21T03:19:50.490Z,13.00
2018-06-21T03:20:50.377Z,12.10
2018-06-21T03:21:50.663Z,12.80
2018-06-21T03:22:50.472Z,12.70
2018-06-21T03:23:50.503Z,13.10
2018-06-21T03:24:50.522Z,12.70
2018-06-21T03:25:50.632Z,11.60
2018-06-21T03:26:50.659Z,12.50
2018-06-21T03:27:50.631Z,12.00
2018-06-21T03:29:22.314Z,12.10
2018-06-21T03:29:50.177Z,12.70
2018-06-21T03:31:44.727Z,11.80
2018-06-21T03:32:45.418Z,12.50
2018-06-21T03:34:12.238Z,13.00
2018-06-21T03:34:44.545Z,12.50
2018-06-21T03:35:44.798Z,12.50
2018-06-21T03:36:51.253Z,12.90
2018-06-21T03:38:11.141Z,11.60
2018-06-21T03:38:44.644Z,12.80
2018-06-21T03:40:13.125Z,12.50
2018-06-21T03:40:44.495Z,12.40
2018-06-21T03:42:07.511Z,11.90
2018-06-21T03:42:44.703Z,13.10
2018-06-21T03:43:44.681Z,13.40
2018-06-21T03:44:44.664Z,13.00
2018-06-21T03:45:44.458Z,13.10
2018-06-21T03:46:44.400Z,12.10
2018-06-21T03:47:45.200Z,13.50
2018-06-21T03:48:44.634Z,13.80
2018-06-21T03:50:56.277Z,11.30
2018-06-21T03:51:55.950Z,12.70
2018-06-21T03:54:08.225Z,12.70
2018-06-21T03:55:08.128Z,13.00
2018-06-21T03:56:10.068Z,13.80
2018-06-21T03:57:09.549Z,13.70
2018-06-21T03:58:08.018Z,14.20
2018-06-21T03:59:10.924Z,14.10
2018-06-21T04:00:08.638Z,14.30
2018-06-21T04:01:10.958Z,14.50
2018-06-21T04:02:08.392Z,13.20
2018-06-21T04:03:08.605Z,13.40
2018-06-21T04:04:08.048Z,14.10
2018-06-21T04:05:07.953Z,14.00
2018-06-21T04:06:11.108Z,13.80
2018-06-21T04:07:08.154Z,14.60
2018-06-21T04:08:07.910Z,14.40
2018-06-21T04:09:08.277Z,14.30
2018-06-21T04:10:08.025Z,14.70
2018-06-21T04:11:08.278Z,15.10
2018-06-21T04:12:09.625Z,14.80
2018-06-21T04:13:07.871Z,14.20
2018-06-21T04:14:07.963Z,13.30
2018-06-21T04:15:08.011Z,14.10
2018-06-21T04:16:09.033Z,14.00
2018-06-21T04:17:08.744Z,14.10
2018-06-21T04:18:07.818Z,13.50
2018-06-21T04:19:08.070Z,14.00
2018-06-21T04:20:07.791Z,14.10
2018-06-21T04:21:07.772Z,14.00
2018-06-21T04:22:07.768Z,13.50
2018-06-21T04:23:08.309Z,13.80
2018-06-21T04:24:07.745Z,13.10
2018-06-21T04:25:07.993Z,12.30
2018-06-21T04:26:07.939Z,12.50
2018-06-21T04:27:07.734Z,13.10
2018-06-21T04:28:07.712Z,12.80
2018-06-21T04:29:07.931Z,12.50
2018-06-21T04:30:08.738Z,12.90
2018-06-21T04:31:07.665Z,13.50
2018-06-21T04:32:07.915Z,12.60
2018-06-21T04:33:07.645Z,13.40
2018-06-21T04:34:07.846Z,13.20
2018-06-21T04:35:07.624Z,13.40
2018-06-21T04:36:07.891Z,12.80
2018-06-21T04:37:08.068Z,13.10
2018-06-21T04:38:07.779Z,12.60
2018-06-21T04:39:07.998Z,12.80
2018-06-21T04:40:07.889Z,13.70
2018-06-21T04:41:07.657Z,13.20
2018-06-21T04:42:07.574Z,13.20
2018-06-21T04:43:07.555Z,13.30
2018-06-21T04:44:07.527Z,13.70
2018-06-21T04:45:07.550Z,13.00
2018-06-21T04:46:07.526Z,13.10
2018-06-21T04:47:07.598Z,13.40
2018-06-21T04:48:16.239Z,14.00
2018-06-21T04:49:17.119Z,13.60
2018-06-21T04:50:07.636Z,13.90
2018-06-21T04:51:07.653Z,14.00
2018-06-21T04:53:18.120Z,12.80
2018-06-21T04:54:18.267Z,13.40
2018-06-21T04:55:26.401Z,14.60
2018-06-21T04:56:18.075Z,13.90
2018-06-21T04:57:27.790Z,14.20
2018-06-21T04:58:18.139Z,13.00
2018-06-21T04:59:18.694Z,13.30
2018-06-21T05:01:34.627Z,10.10
2018-06-21T05:03:44.585Z,12.20
2018-06-21T05:04:44.297Z,12.40
2018-06-21T05:05:44.235Z,12.10
2018-06-21T05:06:52.388Z,12.10
2018-06-21T05:07:44.527Z,12.00
2018-06-21T05:08:44.302Z,12.00
2018-06-21T05:11:41.382Z,10.20
2018-06-21T05:14:10.981Z,11.30
2018-06-21T05:15:10.798Z,11.70
2018-06-21T05:16:10.912Z,11.00
2018-06-21T05:17:18.833Z,11.90
2018-06-21T05:18:11.002Z,11.00
2018-06-21T05:19:10.792Z,11.40
2018-06-21T05:20:21.502Z,10.90
2018-06-21T05:21:10.991Z,11.50
2018-06-21T05:22:10.998Z,11.60
2018-06-21T05:23:11.058Z,11.70
2018-06-21T05:24:10.744Z,12.30
2018-06-21T05:25:10.892Z,12.90
2018-06-21T05:26:10.690Z,13.50
2018-06-21T05:27:10.671Z,12.70
2018-06-21T19:09:33.069Z,2.60
2018-06-21T19:10:33.048Z,2.50
2018-06-21T19:11:33.018Z,2.30
2018-06-21T19:12:32.926Z,2.90
2018-06-21T19:13:32.899Z,2.50
2018-06-21T19:14:32.818Z,2.30
2018-06-21T19:15:18.350Z,1.70
2018-06-21T19:16:18.340Z,1.90
2018-06-21T19:17:18.326Z,2.10
2018-06-21T19:18:18.320Z,2.50
2018-06-21T19:19:18.316Z,2.20
2018-06-21T19:20:18.298Z,2.10
2018-06-21T19:21:18.288Z,2.20
2018-06-21T19:22:18.274Z,2.50
2018-06-21T19:23:18.261Z,2.60
2018-06-21T19:24:18.250Z,2.40
2018-06-21T19:25:18.238Z,2.00
2018-06-21T19:26:18.294Z,2.10
2018-06-21T19:27:18.249Z,2.30
2018-06-21T19:28:18.234Z,2.00
2018-06-21T19:29:18.201Z,2.50
2018-06-21T19:30:18.189Z,2.20
2018-06-21T19:31:18.200Z,2.20
2018-06-21T19:32:18.196Z,2.00
2018-06-21T19:33:18.211Z,2.10
2018-06-21T19:34:18.141Z,2.40
2018-06-21T19:35:18.133Z,2.60
2018-06-21T19:36:18.121Z,2.30
2018-06-21T19:37:18.108Z,2.10
2018-06-21T19:38:18.108Z,2.00
2018-06-21T19:39:18.091Z,2.40
2018-06-21T19:40:18.081Z,2.30
2018-06-21T19:41:19.639Z,2.20
2018-06-21T19:42:18.097Z,3.00
2018-06-21T19:43:19.344Z,1.90
2018-06-21T19:44:18.040Z,2.30
2018-06-21T19:45:18.083Z,2.30
2018-06-21T19:46:18.019Z,2.10
2018-06-21T19:47:18.008Z,2.00
2018-06-21T19:48:18.021Z,2.30
2018-06-21T19:49:17.989Z,2.20
2018-06-21T19:50:17.976Z,2.70
2018-06-21T19:51:17.962Z,2.00
2018-06-21T19:52:17.955Z,2.40
2018-06-21T19:53:17.944Z,2.00
2018-06-21T19:54:17.999Z,2.30
2018-06-21T19:55:17.952Z,2.30
2018-06-21T19:56:17.923Z,2.20
2018-06-21T19:57:17.892Z,2.10
2018-06-21T19:58:17.892Z,2.40
2018-06-21T19:59:17.895Z,1.80
2018-06-21T20:00:17.915Z,1.90
2018-06-21T20:01:17.856Z,2.50
2018-06-21T20:02:17.865Z,2.10
2018-06-21T20:03:17.896Z,2.30
2018-06-21T20:04:17.841Z,2.10
2018-06-21T20:05:17.817Z,2.00
2018-06-21T20:06:17.796Z,2.10
2018-06-21T20:07:17.845Z,2.20
2018-06-21T20:08:17.777Z,1.80
2018-06-21T20:09:17.790Z,2.00
2018-06-21T20:10:17.765Z,1.70
2018-06-21T20:11:17.747Z,1.60
2018-06-21T20:12:17.771Z,1.90
2018-06-21T20:13:17.729Z,1.70
2018-06-21T20:14:17.710Z,1.80
2018-06-21T20:15:17.774Z,1.50
2018-06-21T20:16:17.691Z,1.80
2018-06-21T20:17:17.679Z,1.80
2018-06-21T20:18:17.674Z,1.90
2018-06-21T20:19:17.664Z,1.90
2018-06-21T20:20:17.686Z,2.00
2018-06-21T20:21:17.640Z,2.00
2018-06-21T20:22:17.631Z,1.90
2018-06-21T20:23:17.619Z,1.80
2018-06-21T20:24:17.608Z,1.90
2018-06-21T20:25:17.599Z,2.00
2018-06-21T20:26:17.584Z,1.80
2018-06-21T20:27:17.584Z,2.20
2018-06-21T20:28:17.618Z,2.00
2018-06-21T20:29:17.553Z,1.60
2018-06-21T20:30:17.545Z,2.00
2018-06-21T20:31:17.551Z,2.10
2018-06-21T20:32:17.583Z,2.30
2018-06-21T20:33:17.516Z,2.40
2018-06-21T20:34:17.500Z,2.00
2018-06-21T20:35:17.496Z,1.90
2018-06-21T20:36:17.498Z,1.80
2018-06-21T20:37:17.474Z,1.70
2018-06-21T20:38:17.503Z,1.80
2018-06-21T20:39:17.443Z,2.10
2018-06-21T20:40:17.440Z,1.90
2018-06-21T20:41:17.445Z,2.30
2018-06-21T20:42:17.416Z,2.10
2018-06-21T20:43:17.403Z,2.10
2018-06-21T20:44:17.440Z,2.50
2018-06-21T20:45:17.387Z,2.10
2018-06-21T20:46:17.386Z,1.80
2018-06-21T20:47:17.358Z,2.00
2018-06-21T20:48:17.351Z,1.90
2018-06-21T20:49:17.334Z,1.80
2018-06-21T20:50:17.331Z,2.00
2018-06-21T20:51:17.345Z,1.80
2018-06-21T20:52:17.304Z,2.30
2018-06-21T20:53:17.291Z,1.70
2018-06-21T20:54:17.288Z,1.80
2018-06-21T20:55:17.276Z,1.90
2018-06-21T20:56:17.265Z,1.90
2018-06-21T20:57:17.259Z,2.10
2018-06-21T20:58:17.237Z,1.80
2018-06-21T20:59:17.243Z,2.00
2018-06-21T21:00:17.218Z,2.00
2018-06-21T21:01:17.206Z,1.90
2018-06-21T21:02:17.220Z,1.90
2018-06-21T21:03:17.187Z,1.90
2018-06-21T21:04:17.177Z,1.70
2018-06-21T21:05:17.168Z,1.80
2018-06-21T21:06:17.156Z,1.80
2018-06-21T21:07:17.166Z,2.20
2018-06-21T21:08:17.133Z,1.70
2018-06-21T21:09:17.268Z,1.90
2018-06-21T21:10:17.111Z,2.00
2018-06-21T21:11:17.100Z,1.70
2018-06-21T21:12:17.116Z,1.70
2018-06-21T21:13:17.075Z,2.30
2018-06-21T21:14:17.075Z,1.90
2018-06-21T21:15:17.059Z,2.10
2018-06-21T21:16:17.048Z,1.70
2018-06-21T21:17:17.040Z,2.20
2018-06-21T21:18:17.024Z,1.70
2018-06-21T21:19:17.015Z,2.00
2018-06-21T21:20:17.002Z,1.70
2018-06-21T21:21:16.990Z,2.20
2018-06-21T21:22:16.986Z,1.90
2018-06-21T21:23:17.020Z,2.00
2018-06-21T21:24:16.960Z,2.10
2018-06-21T21:25:16.948Z,1.80
2018-06-21T21:26:16.943Z,2.00
2018-06-21T21:27:16.930Z,2.10
2018-06-21T21:28:16.938Z,2.20
2018-06-21T21:29:16.911Z,2.20
2018-06-21T21:30:16.902Z,2.00
2018-06-21T21:31:16.888Z,2.00
2018-06-21T21:32:16.874Z,2.50
2018-06-21T21:33:16.891Z,2.30
2018-06-21T21:34:16.859Z,1.90
2018-06-21T21:35:16.844Z,2.30
2018-06-21T21:36:16.835Z,1.90
2018-06-21T21:37:16.826Z,1.90
2018-06-21T21:38:16.810Z,2.80
2018-06-21T21:39:16.802Z,2.20
2018-06-21T21:40:16.792Z,2.50
2018-06-21T21:41:16.782Z,2.30
2018-06-21T21:42:16.766Z,1.90
2018-06-21T21:43:16.763Z,2.40
2018-06-21T21:44:16.749Z,2.80
2018-06-21T21:45:16.736Z,2.10
2018-06-21T21:46:16.729Z,2.20
2018-06-21T21:47:16.720Z,2.10
2018-06-21T21:48:16.711Z,1.90
2018-06-21T21:49:16.732Z,2.10
2018-06-21T21:50:16.683Z,2.60
2018-06-21T21:51:16.670Z,2.00
2018-06-21T21:52:16.657Z,2.30
2018-06-21T21:53:16.649Z,2.10
2018-06-21T21:54:16.661Z,2.30
2018-06-21T21:55:16.635Z,2.40
2018-06-21T21:56:16.616Z,2.30
2018-06-21T21:57:16.606Z,2.10
2018-06-21T21:58:16.615Z,2.30
2018-06-21T21:59:16.617Z,2.10
2018-06-21T22:00:16.586Z,2.20
2018-06-21T22:01:16.568Z,2.50
2018-06-21T22:02:16.552Z,2.10
2018-06-21T22:03:16.539Z,2.10
2018-06-21T22:04:16.530Z,2.30
2018-06-21T22:05:16.522Z,2.20
2018-06-21T22:06:16.514Z,2.10
2018-06-21T22:07:16.502Z,1.80
2018-06-21T22:08:16.492Z,2.10
2018-06-21T22:09:16.479Z,2.50
2018-06-21T22:10:16.548Z,2.10
2018-06-21T22:11:16.459Z,2.10
2018-06-21T22:12:16.450Z,2.00
2018-06-21T22:13:16.501Z,2.10
2018-06-21T22:14:16.424Z,2.20
2018-06-21T22:15:16.415Z,2.40
2018-06-21T22:16:16.402Z,2.30
2018-06-21T22:17:16.401Z,2.60
2018-06-21T22:18:16.386Z,2.30
2018-06-21T22:19:16.374Z,2.40
2018-06-21T22:20:16.365Z,2.40
2018-06-21T22:21:16.372Z,2.00
2018-06-21T22:22:16.340Z,2.40
2018-06-21T22:23:16.325Z,2.30
2018-06-21T22:24:16.315Z,2.60
2018-06-21T22:25:16.306Z,2.50
2018-06-21T22:26:16.317Z,2.60
2018-06-21T22:27:16.289Z,2.60
2018-06-21T22:28:16.271Z,2.80
2018-06-21T22:29:16.264Z,3.10
2018-06-21T22:30:16.256Z,2.70
2018-06-21T22:31:16.275Z,2.70
2018-06-21T22:32:16.237Z,2.80
2018-06-21T22:33:16.223Z,2.40
2018-06-21T22:34:16.210Z,2.90
2018-06-21T22:35:16.198Z,2.70
2018-06-21T22:36:16.204Z,2.30
2018-06-21T22:37:16.183Z,2.90
2018-06-21T22:38:16.170Z,2.80
2018-06-21T22:39:16.162Z,2.70
2018-06-21T22:40:16.151Z,3.00
2018-06-21T22:41:16.138Z,2.50
2018-06-21T22:42:16.127Z,2.60
2018-06-21T22:43:16.112Z,2.90
2018-06-21T22:44:16.108Z,2.50
2018-06-21T22:45:16.095Z,2.70
2018-06-21T22:46:16.083Z,2.90
2018-06-21T22:47:16.089Z,3.20
2018-06-21T22:48:16.062Z,2.70
2018-06-21T22:49:16.052Z,2.70
2018-06-21T22:50:16.047Z,2.80
2018-06-21T22:51:16.034Z,2.70
2018-06-21T22:52:16.052Z,2.60
2018-06-21T22:53:16.011Z,2.90
2018-06-21T22:54:15.997Z,2.70
2018-06-21T22:55:15.984Z,2.70
2018-06-21T22:56:15.974Z,3.20
2018-06-21T22:57:15.965Z,3.10
2018-06-21T22:58:15.995Z,2.60
2018-06-21T22:59:15.948Z,2.90
2018-06-21T23:00:15.931Z,2.80
2018-06-21T23:01:15.922Z,3.00
2018-06-21T23:02:15.913Z,3.10
2018-06-21T23:03:15.907Z,2.60
2018-06-21T23:04:15.895Z,2.50
2018-06-21T23:05:15.881Z,2.50
2018-06-21T23:06:15.908Z,2.50
2018-06-21T23:07:15.855Z,3.00
2018-06-21T23:08:15.863Z,2.70
2018-06-21T23:09:15.836Z,2.90
2018-06-21T23:10:15.828Z,3.00
2018-06-21T23:11:15.819Z,2.80
2018-06-21T23:12:15.808Z,3.00
2018-06-21T23:13:15.829Z,3.50
2018-06-21T23:14:15.782Z,3.00
2018-06-21T23:15:15.772Z,3.20
2018-06-21T23:16:15.765Z,2.90
2018-06-21T23:17:15.752Z,3.20
2018-06-21T23:18:15.765Z,3.10
2018-06-21T23:19:15.732Z,2.70
2018-06-21T23:20:15.716Z,3.20
2018-06-21T23:21:15.707Z,3.00
2018-06-21T23:22:15.699Z,2.90
2018-06-21T23:23:15.690Z,2.80
2018-06-21T23:24:15.682Z,3.10
2018-06-21T23:25:15.672Z,2.60
2018-06-21T23:26:15.653Z,2.80
2018-06-21T23:27:15.641Z,2.70
2018-06-21T23:28:15.631Z,2.80
2018-06-21T23:29:15.624Z,3.20
2018-06-21T23:30:15.612Z,3.30
2018-06-21T23:31:15.632Z,3.20
2018-06-21T23:32:15.586Z,2.90
2018-06-21T23:33:15.577Z,2.90
2018-06-21T23:34:15.572Z,3.20
2018-06-21T23:35:15.560Z,3.30
2018-06-21T23:36:15.549Z,2.70
2018-06-21T23:37:15.536Z,2.90
2018-06-21T23:38:15.525Z,3.30
2018-06-21T23:39:15.542Z,2.70
2018-06-21T23:40:15.499Z,2.80
2018-06-21T23:41:15.491Z,3.10
2018-06-21T23:42:15.483Z,3.30
2018-06-21T23:43:15.473Z,3.30
2018-06-21T23:44:15.465Z,3.00
2018-06-21T23:45:15.482Z,2.90
2018-06-21T23:46:15.437Z,3.10
2018-06-21T23:47:15.424Z,2.50
2018-06-21T23:48:15.420Z,2.80
2018-06-21T23:49:15.406Z,2.90
2018-06-21T23:50:15.398Z,2.80
2018-06-21T23:51:15.382Z,2.70
2018-06-21T23:52:15.373Z,2.90
2018-06-21T23:53:15.362Z,3.10
2018-06-21T23:54:15.352Z,3.00
2018-06-21T23:55:15.346Z,3.30
2018-06-21T23:56:15.334Z,2.90
2018-06-21T23:57:15.321Z,2.90
2018-06-21T23:58:15.307Z,2.60
2018-06-21T23:59:15.294Z,2.60
